• Join FlightAware (Why Join?)
  • Login
  • US Flag 
09:11AM EDT


 

Airport Tracker/Info


-or-


 

Live Flight TrackerFlight Track Log ✈ UAL4380 ✈ 30-Apr-2013 ✈ KCLT - KIAH

Flight Track Log - Related Links

Times and Time Zones

All times are in EDT time to prevent confusion due to time zone crossing. See the UAL4380 flight status page for this flight to view local times or setup timezone preferences in your user account.

Time Position Orientation Groundspeed Altitude Reporting Facility
EDT Latitude Longitude Course Direction KTS MPH feet Rate Location/Type
06:09AM 35.2311 -80.9569 192° South 161 185 1,400  Level Atlanta Center
06:10AM 35.2586 -80.9739 333° Northwest 183 211 2,500 1,800 Climbing Atlanta Center
06:11AM 35.2872 -81.0389 298° West 269 310 4,400 2,280 Climbing Atlanta Center
06:12AM 35.2667 -81.1733 270° West  Level FlightAware Approximate
06:12AM 35.2456 -81.1294 241° Southwest 293 337 7,600  Level Atlanta Center
06:13AM 35.2028 -81.2440 199° South  Level FlightAware Approximate
06:13AM 35.2036 -81.2072 237° Southwest 287 330 10,400  Level Atlanta Center
06:14AM 35.1039 -81.2782 192° South  Level FlightAware Approximate
06:14AM 35.1575 -81.2900 236° Southwest 292 336 11,700  Level Atlanta Center
06:15AM 35.1056 -81.3908 238° Southwest 335 386 12,800 1,260 Climbing Atlanta Center
06:16AM 35.0433 -81.5069 237° Southwest 368 423 14,300 1,500 Climbing Atlanta Center
06:17AM 34.9892 -81.6175 239° Southwest 382 440 15,800 1,500 Climbing Atlanta Center
06:18AM 34.9519 -81.7403 250° West 387 445 17,300 1,500 Climbing Atlanta Center
06:19AM 34.9039 -81.8581 244° Southwest 392 451 18,800 1,320 Climbing Atlanta Center
06:20AM 34.8492 -81.9558 236° Southwest 398 458 20,000 1,080 Climbing Atlanta Center
06:21AM 34.7844 -82.0686 235° Southwest 405 466 21,000 960 Climbing Atlanta Center
06:22AM 34.7172 -82.1814 234° Southwest 412 474 22,000 960 Climbing Atlanta Center
06:23AM 34.6522 -82.2989 236° Southwest 412 474 23,000 1,020 Climbing Atlanta Center
06:24AM 34.5850 -82.4164 235° Southwest 424 488 24,100 1,140 Climbing Atlanta Center
06:25AM 34.5114 -82.5439 235° Southwest 429 494 25,300 1,020 Climbing Atlanta Center
06:26AM 34.4439 -82.6636 236° Southwest 429 494 26,200 900 Climbing Atlanta Center
06:27AM 34.3764 -82.7803 235° Southwest 429 494 27,200 1,020 Climbing Atlanta Center
06:28AM 34.3086 -82.8919 234° Southwest 429 494 28,300 1,020 Climbing Atlanta Center
06:29AM 34.2428 -83.0086 236° Southwest 429 494 29,300 960 Climbing Atlanta Center
06:30AM 34.1750 -83.1247 235° Southwest 429 494 30,300 1,020 Climbing Atlanta Center
06:31AM 34.1089 -83.2383 235° Southwest 429 494 31,400 1,020 Climbing Atlanta Center
06:32AM 34.0408 -83.3544 235° Southwest 429 494 32,400 2,280 Climbing Atlanta Center
06:33AM 33.9725 -83.4703 235° Southwest 429 494 36,000 900 Climbing Atlanta Center
06:34AM 33.9122 -83.5708 234° Southwest 429 494 34,300 -360 Descending Atlanta Center
06:35AM 33.8439 -83.6836 234° Southwest 429 494 35,300 840 Climbing Atlanta Center
06:36AM 33.7794 -83.7964 236° Southwest 424 488 36,000 300 Climbing Atlanta Center
06:37AM 33.7128 -83.9089 235° Southwest 424 488 36,000  Level Atlanta Center
06:38AM 33.6336 -84.0389 234° Southwest 435 501 36,000  Level Atlanta Center
06:39AM 33.5606 -84.1586 234° Southwest 441 507 36,000  Level Atlanta Center
06:40AM 33.4892 -84.2781 234° Southwest 446 513 36,000  Level Atlanta Center
06:41AM 33.4200 -84.3947 235° Southwest 446 513 36,000  Level Atlanta Center
06:42AM 33.3467 -84.5164 234° Southwest 446 513 36,000  Level Atlanta Center
06:43AM 33.2753 -84.6328 234° Southwest 444 511 36,000  Level Atlanta Center
06:44AM 33.2119 -84.7367 234° Southwest 444 511 36,000  Level Atlanta Center
06:45AM 33.1425 -84.8525 234° Southwest 439 505 36,000  Level Atlanta Center
06:46AM 33.0728 -84.9633 233° Southwest 434 499 36,000  Level Atlanta Center
06:47AM 33.0031 -85.0792 234° Southwest 434 499 36,000  Level Atlanta Center
06:48AM 32.9247 -85.1944 231° Southwest 429 494 36,000  Level Atlanta Center
06:49AM 32.8567 -85.3075 234° Southwest 424 488 36,000  Level Atlanta Center
06:50AM 32.7889 -85.4200 234° Southwest 429 494 36,000  Level Atlanta Center
06:51AM 32.7186 -85.5300 233° Southwest 429 494 36,000  Level Atlanta Center
06:52AM 32.6483 -85.6400 233° Southwest 429 494 36,000  Level Atlanta Center
06:53AM 32.5800 -85.7497 234° Southwest 429 494 36,000  Level Atlanta Center
06:54AM 32.5117 -85.8617 234° Southwest 429 494 36,000  Level Atlanta Center
06:55AM 32.4475 -85.9636 233° Southwest 439 505 36,000  Level Atlanta Center
06:56AM 32.3789 -86.0753 234° Southwest 428 493 36,000  Level Atlanta Center
06:57AM 32.3083 -86.1842 233° Southwest 428 493 36,000  Level Atlanta Center
06:58AM 32.2417 -86.2931 234° Southwest 428 493 36,000  Level Atlanta Center
06:59AM 32.1642 -86.4114 232° Southwest 420 483 36,000  Level Atlanta Center
07:00AM 32.0869 -86.5172 229° Southwest 415 478 36,000  Level Atlanta Center
07:01AM 32.0119 -86.6206 229° Southwest 420 483 36,000  Level Atlanta Center
07:02AM 31.9389 -86.7114 227° Southwest 428 493 36,000  Level Atlanta Center
07:03AM 31.8656 -86.8167 231° Southwest 428 493 36,000  Level Atlanta Center
07:04AM 31.7903 -86.9194 229° Southwest 428 493 36,000  Level Atlanta Center
07:06AM 31.6092 -87.1656 229° Southwest 411 473 36,000  Level Houston Center
07:07AM 31.5356 -87.2678 230° Southwest 410 472 36,000  Level Houston Center
07:08AM 31.4614 -87.3678 229° Southwest 408 470 36,000  Level Houston Center
07:09AM 31.3886 -87.4675 229° Southwest 404 465 36,000  Level Houston Center
07:10AM 31.3153 -87.5675 229° Southwest 405 466 36,000  Level Houston Center
07:11AM 31.2428 -87.6675 230° Southwest 402 463 36,000  Level Houston Center
07:12AM 31.1772 -87.7539 228° Southwest 402 463 36,000  Level Houston Center
07:13AM 31.1039 -87.8522 229° Southwest 401 461 36,000  Level Houston Center
07:14AM 31.0167 -87.9694 229° Southwest 400 460 36,000  Level Houston Center
07:15AM 30.9431 -88.0672 229° Southwest 401 461 36,000  Level Houston Center
07:16AM 30.8692 -88.1647 229° Southwest 402 463 36,000  Level Houston Center
07:17AM 30.7964 -88.2628 229° Southwest 401 461 36,000  Level Houston Center
07:18AM 30.7381 -88.3686 237° Southwest 394 453 36,000  Level Houston Center
07:19AM 30.7036 -88.4847 251° West 381 438 36,000  Level Houston Center
07:20AM 30.6689 -88.6022 251° West 385 443 36,000  Level Houston Center
07:21AM 30.6347 -88.7186 251° West 383 441 36,000  Level Houston Center
07:22AM 30.5989 -88.8356 250° West 383 441 36,000  Level Houston Center
07:23AM 30.5650 -88.9522 251° West 383 441 36,000  Level Houston Center
07:24AM 30.5308 -89.0694 251° West 384 442 36,000  Level Houston Center
07:25AM 30.4967 -89.1853 251° West 382 440 36,000  Level Houston Center
07:26AM 30.4611 -89.3014 250° West 383 441 36,000  Level Houston Center
07:27AM 30.4258 -89.4172 251° West 383 441 36,000  Level Houston Center
07:28AM 30.3914 -89.5319 251° West 379 436 36,000  Level Houston Center
07:29AM 30.3497 -89.6681 250° West 374 430 36,000  Level Houston Center
07:30AM 30.3164 -89.7639 248° West 377 434 36,000  Level Houston Center
07:31AM 30.2817 -89.8833 251° West 373 429 36,000  Level Houston Center
07:32AM 30.2478 -89.9994 251° West 379 436 36,000  Level Houston Center
07:34AM 30.2133 -90.1119 251° West 376 433 36,000  Level Houston Center
07:35AM 30.1767 -90.2258 250° West 379 436 36,000  Level Houston Center
07:36AM 30.1336 -90.3628 250° West 379 436 36,000  Level Houston Center
07:37AM 30.0972 -90.4775 250° West 381 438 36,000  Level Houston Center
07:38AM 30.0617 -90.5931 250° West 382 440 36,000  Level Houston Center
07:39AM 30.0242 -90.7075 249° West 383 441 36,000  Level Houston Center
07:40AM 29.9881 -90.8233 250° West 385 443 36,000  Level Houston Center
07:41AM 29.9514 -90.9383 250° West 384 442 36,000  Level Houston Center
07:42AM 29.9153 -91.0528 250° West 381 438 36,000  Level Houston Center
07:43AM 29.8789 -91.1672 250° West 382 440 36,000  Level Houston Center
07:44AM 29.8411 -91.2819 249° West 383 441 36,000  Level Houston Center
07:45AM 29.8047 -91.3967 250° West 382 440 36,000  Level Houston Center
07:46AM 29.7672 -91.5117 249° West 382 440 36,000  Level Houston Center
07:47AM 29.7303 -91.6253 249° West 380 437 36,000  Level Houston Center
07:48AM 29.6869 -91.7572 249° West 377 434 36,000  Level Houston Center
07:49AM 29.6508 -91.8725 250° West 381 438 36,000  Level Houston Center
07:50AM 29.6131 -91.9861 249° West 382 440 36,000  Level Houston Center
07:51AM 29.5744 -92.0997 249° West 382 440 36,000  Level Houston Center
07:52AM 29.5369 -92.2142 249° West 384 442 36,000  Level Houston Center
07:53AM 29.4994 -92.3292 249° West 385 443 36,000 -60 Level Houston Center
07:54AM 29.4608 -92.4428 249° West 383 441 35,900  Descending Houston Center
07:55AM 29.4608 -92.5681 270° West 396 456 36,000  Climbing Houston Center
07:56AM 29.4667 -92.6903 273° West 386 444 36,000 -300 Level Houston Center
07:57AM 29.4722 -92.8097 273° West 378 435 35,400 -1,500 Descending Houston Center
07:58AM 29.4786 -92.9561 273° West 382 440 33,000 -2,160 Descending Houston Center
07:59AM 29.4847 -93.0828 273° West 395 455 31,000 -2,040 Descending Houston Center
08:00AM 29.4894 -93.2094 272° West 397 457 28,900 -2,040 Descending Houston Center
08:01AM 29.4956 -93.3358 273° West 395 455 26,900 -2,040 Descending Houston Center
08:02AM 29.5006 -93.4647 273° West 402 463 24,800 -2,040 Descending Houston Center
08:03AM 29.5061 -93.6008 273° West 419 482 22,800 -2,040 Descending Houston Center
08:04AM 29.5106 -93.7364 272° West 424 488 20,700 -2,040 Descending Houston Center
08:05AM 29.5172 -93.8686 273° West 420 483 18,700 -2,280 Descending Houston Center
08:06AM 29.5203 -93.9575 272° West 381 438 16,900 -2,220 Descending Houston Center
08:06AM 29.5217 -93.9908 273° West 407 468 16,500 -2,100 Descending Houston Center
08:07AM 29.5253 -94.1083 272° West 335 386 14,200 -1,860 Descending Houston Center
08:08AM 29.5286 -94.2042 272° West 326 375 13,000 -600 Descending Houston Center
08:09AM 29.5317 -94.3189 272° West 330 380 13,000 -660 Level Houston Center
08:10AM 29.5647 -94.4144 292° West 318 366 11,600 -1,440 Descending Houston Center
08:11AM 29.5983 -94.4947 296° West 289 333 10,000 -1,500 Descending Houston Center
08:12AM 29.6475 -94.5586 312° West 281 323 8,600 -1,020 Descending Houston Center
08:13AM 29.7031 -94.6183 317° Northwest 276 318 8,000 -300 Descending Houston Center
08:14AM 29.7586 -94.6742 319° Northwest 270 311 8,000  Level Houston Center
08:15AM 29.8278 -94.7453 318° Northwest 268 308 8,000  Level Houston Center
08:16AM 29.8769 -94.7969 318° Northwest 285 328 8,000 -420 Level Houston Center
08:17AM 29.9353 -94.8572 318° Northwest 281 323 7,300 -960 Descending Houston Center
08:18AM 29.9864 -94.9328 308° West 268 308 6,000 -1,080 Descending Houston Center
08:19AM 29.9942 -95.0153 276° West 273 314 5,000 -1,020 Descending Houston Center